sensor_id;sensor_type;location;lat;lon;timestamp;P1;durP1;ratioP1;P2;durP2;ratioP2
59052;SDS011;44843;44.728;10.396;2023-04-25T00:01:44;2.95;;;2.50;;
59052;SDS011;44843;44.728;10.396;2023-04-25T00:04:10;4.82;;;2.72;;
59052;SDS011;44843;44.728;10.396;2023-04-25T00:06:36;3.72;;;2.90;;
59052;SDS011;44843;44.728;10.396;2023-04-25T00:09:03;4.15;;;2.58;;
59052;SDS011;44843;44.728;10.396;2023-04-25T00:11:32;3.42;;;2.80;;
59052;SDS011;44843;44.728;10.396;2023-04-25T00:13:57;3.75;;;3.10;;
59052;SDS011;44843;44.728;10.396;2023-04-25T00:16:24;4.07;;;2.60;;
59052;SDS011;44843;44.728;10.396;2023-04-25T00:18:50;4.68;;;3.35;;
59052;SDS011;44843;44.728;10.396;2023-04-25T00:21:18;4.10;;;2.97;;
59052;SDS011;44843;44.728;10.396;2023-04-25T00:23:44;6.03;;;2.95;;
59052;SDS011;44843;44.728;10.396;2023-04-25T00:26:10;4.53;;;2.85;;
59052;SDS011;44843;44.728;10.396;2023-04-25T00:28:36;4.32;;;2.40;;
59052;SDS011;44843;44.728;10.396;2023-04-25T00:31:02;3.20;;;2.65;;
59052;SDS011;44843;44.728;10.396;2023-04-25T00:33:28;3.50;;;2.77;;
59052;SDS011;44843;44.728;10.396;2023-04-25T00:35:54;7.00;;;2.60;;
59052;SDS011;44843;44.728;10.396;2023-04-25T00:38:19;4.22;;;2.35;;
59052;SDS011;44843;44.728;10.396;2023-04-25T00:40:44;5.57;;;3.15;;
59052;SDS011;44843;44.728;10.396;2023-04-25T00:43:10;3.22;;;2.70;;
59052;SDS011;44843;44.728;10.396;2023-04-25T00:45:35;5.25;;;2.80;;
59052;SDS011;44843;44.728;10.396;2023-04-25T00:48:03;3.22;;;2.17;;
59052;SDS011;44843;44.728;10.396;2023-04-25T00:50:29;3.92;;;2.10;;
59052;SDS011;44843;44.728;10.396;2023-04-25T00:52:55;3.63;;;1.67;;
59052;SDS011;44843;44.728;10.396;2023-04-25T00:55:21;3.40;;;1.83;;
59052;SDS011;44843;44.728;10.396;2023-04-25T00:57:46;3.85;;;1.80;;
59052;SDS011;44843;44.728;10.396;2023-04-25T01:00:12;4.43;;;2.10;;
59052;SDS011;44843;44.728;10.396;2023-04-25T01:02:39;2.90;;;1.65;;
59052;SDS011;44843;44.728;10.396;2023-04-25T01:05:05;2.03;;;1.40;;
59052;SDS011;44843;44.728;10.396;2023-04-25T01:07:30;3.10;;;1.45;;
59052;SDS011;44843;44.728;10.396;2023-04-25T01:09:56;2.50;;;1.80;;
59052;SDS011;44843;44.728;10.396;2023-04-25T01:12:22;2.28;;;1.60;;
59052;SDS011;44843;44.728;10.396;2023-04-25T01:14:48;1.98;;;1.48;;
59052;SDS011;44843;44.728;10.396;2023-04-25T01:17:13;1.70;;;1.52;;
59052;SDS011;44843;44.728;10.396;2023-04-25T01:19:39;1.85;;;1.38;;
59052;SDS011;44843;44.728;10.396;2023-04-25T01:22:05;3.30;;;2.03;;
59052;SDS011;44843;44.728;10.396;2023-04-25T01:24:33;2.55;;;1.60;;
59052;SDS011;44843;44.728;10.396;2023-04-25T01:26:59;1.50;;;1.33;;
59052;SDS011;44843;44.728;10.396;2023-04-25T01:29:26;1.73;;;1.63;;
59052;SDS011;44843;44.728;10.396;2023-04-25T01:31:53;2.13;;;1.60;;
59052;SDS011;44843;44.728;10.396;2023-04-25T01:34:18;2.45;;;1.30;;
59052;SDS011;44843;44.728;10.396;2023-04-25T01:36:44;2.35;;;1.60;;
59052;SDS011;44843;44.728;10.396;2023-04-25T01:39:09;2.30;;;1.63;;
59052;SDS011;44843;44.728;10.396;2023-04-25T01:41:35;2.58;;;2.03;;
59052;SDS011;44843;44.728;10.396;2023-04-25T01:44:01;4.65;;;2.70;;
59052;SDS011;44843;44.728;10.396;2023-04-25T01:46:27;3.40;;;2.55;;
59052;SDS011;44843;44.728;10.396;2023-04-25T01:48:53;3.28;;;2.58;;
59052;SDS011;44843;44.728;10.396;2023-04-25T01:51:18;2.90;;;2.45;;
59052;SDS011;44843;44.728;10.396;2023-04-25T01:53:44;3.42;;;2.63;;
59052;SDS011;44843;44.728;10.396;2023-04-25T01:56:10;4.57;;;2.50;;
59052;SDS011;44843;44.728;10.396;2023-04-25T01:58:35;5.82;;;2.92;;
59052;SDS011;44843;44.728;10.396;2023-04-25T02:01:01;3.17;;;2.50;;
59052;SDS011;44843;44.728;10.396;2023-04-25T02:03:26;3.65;;;2.40;;
59052;SDS011;44843;44.728;10.396;2023-04-25T02:05:51;5.40;;;2.40;;
59052;SDS011;44843;44.728;10.396;2023-04-25T02:08:17;3.55;;;2.30;;
59052;SDS011;44843;44.728;10.396;2023-04-25T02:10:43;7.95;;;2.63;;
59052;SDS011;44843;44.728;10.396;2023-04-25T02:13:08;4.22;;;2.60;;
59052;SDS011;44843;44.728;10.396;2023-04-25T02:15:34;3.53;;;2.60;;
59052;SDS011;44843;44.728;10.396;2023-04-25T02:17:59;5.55;;;2.50;;
59052;SDS011;44843;44.728;10.396;2023-04-25T02:20:25;3.67;;;2.60;;
59052;SDS011;44843;44.728;10.396;2023-04-25T02:22:51;3.65;;;2.40;;
59052;SDS011;44843;44.728;10.396;2023-04-25T02:25:17;3.22;;;2.25;;
59052;SDS011;44843;44.728;10.396;2023-04-25T02:27:44;4.10;;;2.28;;
59052;SDS011;44843;44.728;10.396;2023-04-25T02:30:10;4.55;;;2.58;;
59052;SDS011;44843;44.728;10.396;2023-04-25T02:32:36;3.92;;;2.92;;
59052;SDS011;44843;44.728;10.396;2023-04-25T02:35:02;3.50;;;2.35;;
59052;SDS011;44843;44.728;10.396;2023-04-25T02:37:38;2.50;;;2.30;;
59052;SDS011;44843;44.728;10.396;2023-04-25T02:40:05;3.35;;;2.55;;
59052;SDS011;44843;44.728;10.396;2023-04-25T02:42:31;4.50;;;2.60;;
59052;SDS011;44843;44.728;10.396;2023-04-25T02:44:56;4.38;;;2.45;;
59052;SDS011;44843;44.728;10.396;2023-04-25T02:47:22;3.13;;;2.70;;
59052;SDS011;44843;44.728;10.396;2023-04-25T02:49:47;6.75;;;2.70;;
59052;SDS011;44843;44.728;10.396;2023-04-25T02:52:13;3.75;;;2.25;;
59052;SDS011;44843;44.728;10.396;2023-04-25T02:54:39;5.15;;;2.50;;
59052;SDS011;44843;44.728;10.396;2023-04-25T02:57:05;2.22;;;1.92;;
59052;SDS011;44843;44.728;10.396;2023-04-25T02:59:31;3.92;;;2.63;;
59052;SDS011;44843;44.728;10.396;2023-04-25T03:01:56;3.35;;;2.33;;
59052;SDS011;44843;44.728;10.396;2023-04-25T03:04:22;2.67;;;2.35;;
59052;SDS011;44843;44.728;10.396;2023-04-25T03:06:48;5.70;;;2.20;;
59052;SDS011;44843;44.728;10.396;2023-04-25T03:09:14;4.82;;;2.50;;
59052;SDS011;44843;44.728;10.396;2023-04-25T03:11:40;5.07;;;2.13;;
59052;SDS011;44843;44.728;10.396;2023-04-25T03:14:05;4.15;;;2.58;;
59052;SDS011;44843;44.728;10.396;2023-04-25T03:16:31;3.30;;;2.33;;
59052;SDS011;44843;44.728;10.396;2023-04-25T03:18:56;2.58;;;2.00;;
59052;SDS011;44843;44.728;10.396;2023-04-25T03:21:22;4.05;;;2.65;;
59052;SDS011;44843;44.728;10.396;2023-04-25T03:23:48;3.95;;;3.03;;
59052;SDS011;44843;44.728;10.396;2023-04-25T03:26:13;8.48;;;4.07;;
59052;SDS011;44843;44.728;10.396;2023-04-25T03:28:41;3.65;;;2.60;;
59052;SDS011;44843;44.728;10.396;2023-04-25T03:31:07;5.10;;;3.10;;
59052;SDS011;44843;44.728;10.396;2023-04-25T03:33:32;5.20;;;2.55;;
59052;SDS011;44843;44.728;10.396;2023-04-25T03:35:57;4.13;;;2.58;;
59052;SDS011;44843;44.728;10.396;2023-04-25T03:38:23;4.82;;;2.63;;
59052;SDS011;44843;44.728;10.396;2023-04-25T03:40:49;4.32;;;2.08;;
59052;SDS011;44843;44.728;10.396;2023-04-25T03:43:16;3.53;;;2.40;;
59052;SDS011;44843;44.728;10.396;2023-04-25T03:45:41;2.90;;;2.30;;
59052;SDS011;44843;44.728;10.396;2023-04-25T03:48:06;3.90;;;2.45;;
59052;SDS011;44843;44.728;10.396;2023-04-25T03:50:32;6.43;;;2.72;;
59052;SDS011;44843;44.728;10.396;2023-04-25T03:55:23;3.90;;;2.30;;
59052;SDS011;44843;44.728;10.396;2023-04-25T03:57:48;6.18;;;2.58;;
59052;SDS011;44843;44.728;10.396;2023-04-25T04:00:13;3.78;;;2.35;;
59052;SDS011;44843;44.728;10.396;2023-04-25T04:02:39;3.90;;;2.40;;
59052;SDS011;44843;44.728;10.396;2023-04-25T04:05:04;4.72;;;2.70;;
59052;SDS011;44843;44.728;10.396;2023-04-25T04:07:30;3.60;;;2.33;;
59052;SDS011;44843;44.728;10.396;2023-04-25T04:09:57;5.72;;;2.80;;
59052;SDS011;44843;44.728;10.396;2023-04-25T04:12:23;7.30;;;2.92;;
59052;SDS011;44843;44.728;10.396;2023-04-25T04:14:48;3.65;;;2.63;;
59052;SDS011;44843;44.728;10.396;2023-04-25T04:17:14;5.30;;;2.40;;
59052;SDS011;44843;44.728;10.396;2023-04-25T04:19:39;4.43;;;2.45;;
59052;SDS011;44843;44.728;10.396;2023-04-25T04:22:04;4.57;;;2.33;;
59052;SDS011;44843;44.728;10.396;2023-04-25T04:24:30;3.70;;;2.20;;
59052;SDS011;44843;44.728;10.396;2023-04-25T04:26:55;3.67;;;2.53;;
59052;SDS011;44843;44.728;10.396;2023-04-25T04:29:21;7.28;;;2.70;;
59052;SDS011;44843;44.728;10.396;2023-04-25T04:31:50;2.72;;;2.42;;
59052;SDS011;44843;44.728;10.396;2023-04-25T04:34:17;5.00;;;2.60;;
59052;SDS011;44843;44.728;10.396;2023-04-25T04:36:43;2.50;;;2.30;;
59052;SDS011;44843;44.728;10.396;2023-04-25T04:39:11;4.20;;;2.85;;
59052;SDS011;44843;44.728;10.396;2023-04-25T04:41:36;5.43;;;2.58;;
59052;SDS011;44843;44.728;10.396;2023-04-25T04:44:02;3.33;;;2.53;;
59052;SDS011;44843;44.728;10.396;2023-04-25T04:46:28;2.90;;;2.47;;
59052;SDS011;44843;44.728;10.396;2023-04-25T04:48:53;5.90;;;2.83;;
59052;SDS011;44843;44.728;10.396;2023-04-25T04:51:19;3.47;;;2.45;;
59052;SDS011;44843;44.728;10.396;2023-04-25T04:53:45;3.42;;;2.08;;
59052;SDS011;44843;44.728;10.396;2023-04-25T04:56:11;3.08;;;2.78;;
59052;SDS011;44843;44.728;10.396;2023-04-25T04:58:36;7.00;;;2.63;;
59052;SDS011;44843;44.728;10.396;2023-04-25T05:01:02;6.18;;;2.58;;
59052;SDS011;44843;44.728;10.396;2023-04-25T05:03:27;4.00;;;2.50;;
59052;SDS011;44843;44.728;10.396;2023-04-25T05:05:53;3.97;;;2.17;;
59052;SDS011;44843;44.728;10.396;2023-04-25T05:08:20;3.53;;;2.30;;
59052;SDS011;44843;44.728;10.396;2023-04-25T05:10:45;4.60;;;2.60;;
59052;SDS011;44843;44.728;10.396;2023-04-25T05:13:10;4.00;;;2.63;;
59052;SDS011;44843;44.728;10.396;2023-04-25T05:15:36;3.83;;;2.42;;
59052;SDS011;44843;44.728;10.396;2023-04-25T05:18:01;2.97;;;2.40;;
59052;SDS011;44843;44.728;10.396;2023-04-25T05:20:27;5.68;;;2.63;;
59052;SDS011;44843;44.728;10.396;2023-04-25T05:22:52;5.57;;;2.42;;
59052;SDS011;44843;44.728;10.396;2023-04-25T05:25:17;5.75;;;2.70;;
59052;SDS011;44843;44.728;10.396;2023-04-25T05:27:43;3.25;;;2.42;;
59052;SDS011;44843;44.728;10.396;2023-04-25T05:30:08;3.10;;;2.35;;
59052;SDS011;44843;44.728;10.396;2023-04-25T05:32:34;3.22;;;2.60;;
59052;SDS011;44843;44.728;10.396;2023-04-25T05:35:00;3.72;;;2.67;;
59052;SDS011;44843;44.728;10.396;2023-04-25T05:37:26;4.68;;;2.40;;
59052;SDS011;44843;44.728;10.396;2023-04-25T05:39:51;4.88;;;2.88;;
59052;SDS011;44843;44.728;10.396;2023-04-25T05:42:16;3.55;;;2.53;;
59052;SDS011;44843;44.728;10.396;2023-04-25T05:44:42;6.20;;;2.70;;
59052;SDS011;44843;44.728;10.396;2023-04-25T05:47:07;5.78;;;3.17;;
59052;SDS011;44843;44.728;10.396;2023-04-25T05:49:33;4.57;;;2.65;;
59052;SDS011;44843;44.728;10.396;2023-04-25T05:51:59;5.32;;;2.72;;
59052;SDS011;44843;44.728;10.396;2023-04-25T05:54:24;4.25;;;2.92;;
59052;SDS011;44843;44.728;10.396;2023-04-25T05:56:50;4.05;;;2.80;;
59052;SDS011;44843;44.728;10.396;2023-04-25T05:59:15;6.80;;;2.75;;
59052;SDS011;44843;44.728;10.396;2023-04-25T06:01:41;4.03;;;2.60;;
59052;SDS011;44843;44.728;10.396;2023-04-25T06:04:06;7.40;;;2.58;;
59052;SDS011;44843;44.728;10.396;2023-04-25T06:06:32;5.20;;;2.85;;
59052;SDS011;44843;44.728;10.396;2023-04-25T06:08:57;4.25;;;2.60;;
59052;SDS011;44843;44.728;10.396;2023-04-25T06:11:23;4.22;;;2.80;;
59052;SDS011;44843;44.728;10.396;2023-04-25T06:13:48;3.10;;;2.70;;
59052;SDS011;44843;44.728;10.396;2023-04-25T06:16:13;5.00;;;3.15;;
59052;SDS011;44843;44.728;10.396;2023-04-25T06:18:39;3.35;;;3.00;;
59052;SDS011;44843;44.728;10.396;2023-04-25T06:21:05;3.80;;;2.90;;
59052;SDS011;44843;44.728;10.396;2023-04-25T06:23:30;6.53;;;2.92;;
59052;SDS011;44843;44.728;10.396;2023-04-25T06:25:55;4.90;;;2.83;;
59052;SDS011;44843;44.728;10.396;2023-04-25T06:28:21;6.60;;;3.33;;
59052;SDS011;44843;44.728;10.396;2023-04-25T06:30:47;3.63;;;2.65;;
59052;SDS011;44843;44.728;10.396;2023-04-25T06:33:12;4.95;;;2.95;;
59052;SDS011;44843;44.728;10.396;2023-04-25T06:35:37;7.53;;;3.38;;
59052;SDS011;44843;44.728;10.396;2023-04-25T06:38:03;4.25;;;2.85;;
59052;SDS011;44843;44.728;10.396;2023-04-25T06:40:28;5.60;;;2.72;;
59052;SDS011;44843;44.728;10.396;2023-04-25T06:42:54;3.95;;;3.20;;
59052;SDS011;44843;44.728;10.396;2023-04-25T06:45:19;4.32;;;3.03;;
59052;SDS011;44843;44.728;10.396;2023-04-25T06:47:44;2.42;;;2.20;;
59052;SDS011;44843;44.728;10.396;2023-04-25T06:50:10;4.97;;;2.75;;
59052;SDS011;44843;44.728;10.396;2023-04-25T06:52:36;6.15;;;2.97;;
59052;SDS011;44843;44.728;10.396;2023-04-25T06:55:01;6.60;;;3.00;;
59052;SDS011;44843;44.728;10.396;2023-04-25T06:57:27;4.70;;;3.15;;
59052;SDS011;44843;44.728;10.396;2023-04-25T06:59:53;4.07;;;3.03;;
59052;SDS011;44843;44.728;10.396;2023-04-25T07:02:18;6.97;;;3.35;;
59052;SDS011;44843;44.728;10.396;2023-04-25T07:04:43;4.22;;;2.97;;
59052;SDS011;44843;44.728;10.396;2023-04-25T07:07:10;3.83;;;3.40;;
59052;SDS011;44843;44.728;10.396;2023-04-25T07:09:36;5.97;;;3.47;;
59052;SDS011;44843;44.728;10.396;2023-04-25T07:12:01;8.68;;;3.15;;
59052;SDS011;44843;44.728;10.396;2023-04-25T07:14:27;4.05;;;2.75;;
59052;SDS011;44843;44.728;10.396;2023-04-25T07:16:53;5.25;;;3.38;;
59052;SDS011;44843;44.728;10.396;2023-04-25T07:19:20;5.32;;;3.05;;
59052;SDS011;44843;44.728;10.396;2023-04-25T07:21:46;4.28;;;3.20;;
59052;SDS011;44843;44.728;10.396;2023-04-25T07:24:11;5.47;;;2.88;;
59052;SDS011;44843;44.728;10.396;2023-04-25T07:26:36;4.25;;;3.38;;
59052;SDS011;44843;44.728;10.396;2023-04-25T07:29:02;8.35;;;3.15;;
59052;SDS011;44843;44.728;10.396;2023-04-25T07:31:27;4.72;;;3.20;;
59052;SDS011;44843;44.728;10.396;2023-04-25T07:33:53;5.82;;;3.65;;
59052;SDS011;44843;44.728;10.396;2023-04-25T07:36:18;4.72;;;3.92;;
59052;SDS011;44843;44.728;10.396;2023-04-25T07:38:44;3.75;;;3.00;;
59052;SDS011;44843;44.728;10.396;2023-04-25T07:41:09;4.00;;;3.15;;
59052;SDS011;44843;44.728;10.396;2023-04-25T07:43:34;6.50;;;3.50;;
59052;SDS011;44843;44.728;10.396;2023-04-25T07:46:00;6.47;;;3.35;;
59052;SDS011;44843;44.728;10.396;2023-04-25T07:48:25;4.15;;;3.53;;
59052;SDS011;44843;44.728;10.396;2023-04-25T07:50:51;6.32;;;3.60;;
59052;SDS011;44843;44.728;10.396;2023-04-25T07:53:16;7.18;;;4.30;;
59052;SDS011;44843;44.728;10.396;2023-04-25T07:55:43;6.03;;;4.18;;
59052;SDS011;44843;44.728;10.396;2023-04-25T07:58:08;3.67;;;3.15;;
59052;SDS011;44843;44.728;10.396;2023-04-25T08:00:35;3.88;;;3.10;;
59052;SDS011;44843;44.728;10.396;2023-04-25T08:03:00;5.22;;;3.47;;
59052;SDS011;44843;44.728;10.396;2023-04-25T08:05:26;3.33;;;2.90;;
59052;SDS011;44843;44.728;10.396;2023-04-25T08:07:51;3.05;;;2.63;;
59052;SDS011;44843;44.728;10.396;2023-04-25T08:10:17;2.70;;;2.42;;
59052;SDS011;44843;44.728;10.396;2023-04-25T08:12:42;5.55;;;2.80;;
59052;SDS011;44843;44.728;10.396;2023-04-25T08:15:08;2.75;;;2.00;;
59052;SDS011;44843;44.728;10.396;2023-04-25T08:17:34;3.40;;;1.85;;
59052;SDS011;44843;44.728;10.396;2023-04-25T08:19:59;4.30;;;1.83;;
59052;SDS011;44843;44.728;10.396;2023-04-25T08:22:25;1.73;;;1.08;;
59052;SDS011;44843;44.728;10.396;2023-04-25T08:24:50;3.53;;;1.00;;
59052;SDS011;44843;44.728;10.396;2023-04-25T08:27:15;3.08;;;1.00;;
59052;SDS011;44843;44.728;10.396;2023-04-25T08:29:41;1.50;;;0.98;;
59052;SDS011;44843;44.728;10.396;2023-04-25T08:32:07;2.25;;;1.35;;
59052;SDS011;44843;44.728;10.396;2023-04-25T08:34:32;2.85;;;1.30;;
59052;SDS011;44843;44.728;10.396;2023-04-25T08:36:57;1.70;;;1.42;;
59052;SDS011;44843;44.728;10.396;2023-04-25T08:39:23;1.60;;;1.15;;
59052;SDS011;44843;44.728;10.396;2023-04-25T08:41:48;2.03;;;1.02;;
59052;SDS011;44843;44.728;10.396;2023-04-25T08:44:14;2.53;;;0.90;;
59052;SDS011;44843;44.728;10.396;2023-04-25T08:46:40;2.08;;;0.70;;
59052;SDS011;44843;44.728;10.396;2023-04-25T08:49:06;3.70;;;1.00;;
59052;SDS011;44843;44.728;10.396;2023-04-25T08:51:32;3.70;;;0.77;;
59052;SDS011;44843;44.728;10.396;2023-04-25T08:54:01;2.03;;;0.88;;
59052;SDS011;44843;44.728;10.396;2023-04-25T08:56:34;0.80;;;0.75;;
59052;SDS011;44843;44.728;10.396;2023-04-25T08:59:00;1.13;;;0.65;;
59052;SDS011;44843;44.728;10.396;2023-04-25T09:01:27;0.68;;;0.68;;
59052;SDS011;44843;44.728;10.396;2023-04-25T09:03:53;0.88;;;0.70;;
59052;SDS011;44843;44.728;10.396;2023-04-25T09:06:19;1.13;;;0.60;;
59052;SDS011;44843;44.728;10.396;2023-04-25T09:08:45;0.60;;;0.60;;
59052;SDS011;44843;44.728;10.396;2023-04-25T09:11:11;0.73;;;0.60;;
59052;SDS011;44843;44.728;10.396;2023-04-25T09:13:37;0.60;;;0.60;;
59052;SDS011;44843;44.728;10.396;2023-04-25T09:16:03;0.50;;;0.50;;
59052;SDS011;44843;44.728;10.396;2023-04-25T09:18:29;0.55;;;0.55;;
59052;SDS011;44843;44.728;10.396;2023-04-25T09:20:56;1.92;;;0.55;;
59052;SDS011;44843;44.728;10.396;2023-04-25T09:23:31;0.60;;;0.60;;
59052;SDS011;44843;44.728;10.396;2023-04-25T09:28:32;0.77;;;0.65;;
59052;SDS011;44843;44.728;10.396;2023-04-25T09:30:57;1.33;;;0.40;;
59052;SDS011;44843;44.728;10.396;2023-04-25T09:33:32;2.40;;;0.68;;
59052;SDS011;44843;44.728;10.396;2023-04-25T09:36:04;0.60;;;0.45;;
59052;SDS011;44843;44.728;10.396;2023-04-25T09:38:41;1.30;;;0.88;;
59052;SDS011;44843;44.728;10.396;2023-04-25T09:41:08;0.50;;;0.50;;
59052;SDS011;44843;44.728;10.396;2023-04-25T09:43:35;0.68;;;0.60;;
59052;SDS011;44843;44.728;10.396;2023-04-25T09:46:00;3.17;;;0.68;;
59052;SDS011;44843;44.728;10.396;2023-04-25T09:48:27;2.22;;;1.13;;
59052;SDS011;44843;44.728;10.396;2023-04-25T09:51:12;1.63;;;1.10;;
59052;SDS011;44843;44.728;10.396;2023-04-25T09:53:39;1.02;;;0.73;;
59052;SDS011;44843;44.728;10.396;2023-04-25T09:56:07;1.40;;;0.98;;
59052;SDS011;44843;44.728;10.396;2023-04-25T09:58:34;1.30;;;0.80;;
59052;SDS011;44843;44.728;10.396;2023-04-25T10:01:01;1.60;;;1.08;;
59052;SDS011;44843;44.728;10.396;2023-04-25T10:03:29;2.22;;;1.13;;
59052;SDS011;44843;44.728;10.396;2023-04-25T10:08:32;2.08;;;1.10;;
59052;SDS011;44843;44.728;10.396;2023-04-25T10:11:00;1.20;;;1.10;;
59052;SDS011;44843;44.728;10.396;2023-04-25T10:13:28;1.05;;;0.88;;
59052;SDS011;44843;44.728;10.396;2023-04-25T10:15:56;1.67;;;1.17;;
59052;SDS011;44843;44.728;10.396;2023-04-25T10:18:23;1.15;;;1.00;;
59052;SDS011;44843;44.728;10.396;2023-04-25T10:20:50;2.17;;;1.10;;
59052;SDS011;44843;44.728;10.396;2023-04-25T10:23:16;1.02;;;0.75;;
59052;SDS011;44843;44.728;10.396;2023-04-25T10:25:42;1.20;;;1.10;;
59052;SDS011;44843;44.728;10.396;2023-04-25T10:28:08;1.58;;;0.93;;
59052;SDS011;44843;44.728;10.396;2023-04-25T10:30:33;1.27;;;1.17;;
59052;SDS011;44843;44.728;10.396;2023-04-25T10:32:59;3.08;;;1.23;;
59052;SDS011;44843;44.728;10.396;2023-04-25T10:35:28;3.13;;;1.50;;
59052;SDS011;44843;44.728;10.396;2023-04-25T10:38:10;1.23;;;1.13;;
59052;SDS011;44843;44.728;10.396;2023-04-25T10:40:38;3.92;;;1.85;;
59052;SDS011;44843;44.728;10.396;2023-04-25T10:46:02;4.13;;;1.40;;
59052;SDS011;44843;44.728;10.396;2023-04-25T10:48:38;3.97;;;2.03;;
59052;SDS011;44843;44.728;10.396;2023-04-25T10:51:11;2.85;;;1.50;;
59052;SDS011;44843;44.728;10.396;2023-04-25T10:53:37;1.98;;;1.50;;
59052;SDS011;44843;44.728;10.396;2023-04-25T10:58:48;1.60;;;1.50;;
59052;SDS011;44843;44.728;10.396;2023-04-25T11:01:14;1.60;;;1.50;;
59052;SDS011;44843;44.728;10.396;2023-04-25T11:03:44;4.30;;;1.80;;
59052;SDS011;44843;44.728;10.396;2023-04-25T11:06:58;3.70;;;1.85;;
59052;SDS011;44843;44.728;10.396;2023-04-25T11:09:11;2.25;;;1.42;;
59052;SDS011;44843;44.728;10.396;2023-04-25T11:11:40;2.50;;;1.73;;
59052;SDS011;44843;44.728;10.396;2023-04-25T11:14:06;2.25;;;1.63;;
59052;SDS011;44843;44.728;10.396;2023-04-25T11:16:31;2.47;;;2.00;;
59052;SDS011;44843;44.728;10.396;2023-04-25T11:18:57;3.00;;;1.85;;
59052;SDS011;44843;44.728;10.396;2023-04-25T11:21:24;4.53;;;1.98;;
59052;SDS011;44843;44.728;10.396;2023-04-25T11:23:53;2.38;;;1.95;;
59052;SDS011;44843;44.728;10.396;2023-04-25T11:26:21;3.30;;;2.00;;
59052;SDS011;44843;44.728;10.396;2023-04-25T11:28:48;2.97;;;1.73;;
59052;SDS011;44843;44.728;10.396;2023-04-25T11:31:14;3.78;;;1.60;;
59052;SDS011;44843;44.728;10.396;2023-04-25T11:33:40;2.30;;;1.60;;
59052;SDS011;44843;44.728;10.396;2023-04-25T11:36:05;3.72;;;1.75;;
59052;SDS011;44843;44.728;10.396;2023-04-25T11:38:31;5.10;;;2.20;;
59052;SDS011;44843;44.728;10.396;2023-04-25T11:40:57;2.47;;;1.83;;
59052;SDS011;44843;44.728;10.396;2023-04-25T11:43:22;5.93;;;1.52;;
59052;SDS011;44843;44.728;10.396;2023-04-25T11:45:50;3.22;;;1.80;;
59052;SDS011;44843;44.728;10.396;2023-04-25T11:48:17;2.17;;;1.70;;
59052;SDS011;44843;44.728;10.396;2023-04-25T11:50:43;4.50;;;1.70;;
59052;SDS011;44843;44.728;10.396;2023-04-25T11:53:09;3.22;;;1.90;;
59052;SDS011;44843;44.728;10.396;2023-04-25T11:55:35;2.92;;;1.90;;
59052;SDS011;44843;44.728;10.396;2023-04-25T11:58:01;1.90;;;1.70;;
59052;SDS011;44843;44.728;10.396;2023-04-25T12:00:28;1.65;;;1.55;;
59052;SDS011;44843;44.728;10.396;2023-04-25T12:02:54;4.68;;;1.70;;
59052;SDS011;44843;44.728;10.396;2023-04-25T12:05:29;2.55;;;1.80;;
59052;SDS011;44843;44.728;10.396;2023-04-25T12:07:55;2.97;;;1.60;;
59052;SDS011;44843;44.728;10.396;2023-04-25T12:10:21;2.83;;;1.65;;
59052;SDS011;44843;44.728;10.396;2023-04-25T12:12:47;5.43;;;1.77;;
59052;SDS011;44843;44.728;10.396;2023-04-25T12:15:14;3.72;;;1.60;;
59052;SDS011;44843;44.728;10.396;2023-04-25T12:17:50;2.92;;;1.42;;
59052;SDS011;44843;44.728;10.396;2023-04-25T12:20:19;3.00;;;1.40;;
59052;SDS011;44843;44.728;10.396;2023-04-25T12:22:48;2.95;;;1.40;;
59052;SDS011;44843;44.728;10.396;2023-04-25T12:33:29;5.47;;;1.70;;
59052;SDS011;44843;44.728;10.396;2023-04-25T12:35:56;2.10;;;1.42;;
59052;SDS011;44843;44.728;10.396;2023-04-25T12:38:27;2.63;;;1.58;;
59052;SDS011;44843;44.728;10.396;2023-04-25T12:40:55;1.50;;;1.40;;
59052;SDS011;44843;44.728;10.396;2023-04-25T12:43:21;3.72;;;1.40;;
59052;SDS011;44843;44.728;10.396;2023-04-25T12:45:47;2.75;;;1.63;;
59052;SDS011;44843;44.728;10.396;2023-04-25T12:48:16;3.00;;;1.55;;
59052;SDS011;44843;44.728;10.396;2023-04-25T12:50:43;3.13;;;1.98;;
59052;SDS011;44843;44.728;10.396;2023-04-25T12:53:09;2.67;;;1.50;;
59052;SDS011;44843;44.728;10.396;2023-04-25T12:55:35;2.85;;;2.25;;
59052;SDS011;44843;44.728;10.396;2023-04-25T12:58:00;1.45;;;1.27;;
59052;SDS011;44843;44.728;10.396;2023-04-25T13:00:26;2.22;;;1.80;;
59052;SDS011;44843;44.728;10.396;2023-04-25T13:02:51;1.85;;;1.60;;
59052;SDS011;44843;44.728;10.396;2023-04-25T13:05:17;4.28;;;1.90;;
59052;SDS011;44843;44.728;10.396;2023-04-25T13:07:42;1.92;;;1.67;;
59052;SDS011;44843;44.728;10.396;2023-04-25T13:10:08;5.15;;;1.75;;
59052;SDS011;44843;44.728;10.396;2023-04-25T13:12:33;2.13;;;1.80;;
59052;SDS011;44843;44.728;10.396;2023-04-25T13:14:58;2.33;;;1.83;;
59052;SDS011;44843;44.728;10.396;2023-04-25T13:17:24;2.65;;;2.00;;
59052;SDS011;44843;44.728;10.396;2023-04-25T13:19:49;3.05;;;1.60;;
59052;SDS011;44843;44.728;10.396;2023-04-25T13:22:14;4.63;;;1.75;;
59052;SDS011;44843;44.728;10.396;2023-04-25T13:24:41;3.03;;;1.60;;
59052;SDS011;44843;44.728;10.396;2023-04-25T13:27:07;2.05;;;1.60;;
59052;SDS011;44843;44.728;10.396;2023-04-25T13:29:32;3.17;;;1.60;;
59052;SDS011;44843;44.728;10.396;2023-04-25T13:32:00;3.38;;;1.77;;
59052;SDS011;44843;44.728;10.396;2023-04-25T13:34:26;3.72;;;1.83;;
59052;SDS011;44843;44.728;10.396;2023-04-25T13:36:51;7.47;;;1.90;;
59052;SDS011;44843;44.728;10.396;2023-04-25T13:39:17;4.60;;;1.80;;
59052;SDS011;44843;44.728;10.396;2023-04-25T13:41:42;1.75;;;1.52;;
59052;SDS011;44843;44.728;10.396;2023-04-25T13:44:08;3.55;;;1.48;;
59052;SDS011;44843;44.728;10.396;2023-04-25T13:46:33;3.55;;;1.63;;
59052;SDS011;44843;44.728;10.396;2023-04-25T13:48:59;1.80;;;1.30;;
59052;SDS011;44843;44.728;10.396;2023-04-25T13:51:24;2.70;;;1.50;;
59052;SDS011;44843;44.728;10.396;2023-04-25T13:53:51;5.25;;;1.60;;
59052;SDS011;44843;44.728;10.396;2023-04-25T13:56:17;1.40;;;1.13;;
59052;SDS011;44843;44.728;10.396;2023-04-25T13:58:44;5.15;;;1.50;;
59052;SDS011;44843;44.728;10.396;2023-04-25T14:01:10;1.58;;;1.33;;
59052;SDS011;44843;44.728;10.396;2023-04-25T14:03:35;2.05;;;1.20;;
59052;SDS011;44843;44.728;10.396;2023-04-25T14:06:01;2.35;;;1.15;;
59052;SDS011;44843;44.728;10.396;2023-04-25T14:08:26;2.75;;;1.52;;
59052;SDS011;44843;44.728;10.396;2023-04-25T14:10:52;8.52;;;1.98;;
59052;SDS011;44843;44.728;10.396;2023-04-25T14:13:17;1.50;;;1.17;;
59052;SDS011;44843;44.728;10.396;2023-04-25T14:15:43;2.00;;;1.45;;
59052;SDS011;44843;44.728;10.396;2023-04-25T14:18:09;1.30;;;1.20;;
59052;SDS011;44843;44.728;10.396;2023-04-25T14:20:34;4.55;;;1.55;;
59052;SDS011;44843;44.728;10.396;2023-04-25T14:23:00;2.97;;;1.15;;
59052;SDS011;44843;44.728;10.396;2023-04-25T14:25:26;2.17;;;1.33;;
59052;SDS011;44843;44.728;10.396;2023-04-25T14:27:51;1.30;;;1.20;;
59052;SDS011;44843;44.728;10.396;2023-04-25T14:30:17;2.75;;;1.30;;
59052;SDS011;44843;44.728;10.396;2023-04-25T14:32:44;1.55;;;1.30;;
59052;SDS011;44843;44.728;10.396;2023-04-25T14:35:10;2.53;;;1.17;;
59052;SDS011;44843;44.728;10.396;2023-04-25T14:37:36;2.30;;;1.50;;
59052;SDS011;44843;44.728;10.396;2023-04-25T14:40:01;1.25;;;1.10;;
59052;SDS011;44843;44.728;10.396;2023-04-25T14:42:27;2.35;;;1.00;;
59052;SDS011;44843;44.728;10.396;2023-04-25T14:44:52;1.63;;;1.30;;
59052;SDS011;44843;44.728;10.396;2023-04-25T14:47:18;1.95;;;1.00;;
59052;SDS011;44843;44.728;10.396;2023-04-25T14:49:43;2.10;;;1.20;;